createdAt,value
2018-08-24T00:00:28.603Z,41.67
2018-08-24T00:02:57.061Z,41.93
2018-08-24T00:05:25.523Z,43.27
2018-08-24T00:07:54.338Z,43.90
2018-08-24T00:10:23.091Z,47.60
2018-08-24T00:12:51.516Z,44.67
2018-08-24T00:15:20.462Z,46.17
2018-08-24T00:17:49.251Z,47.80
2018-08-24T00:20:17.899Z,48.37
2018-08-24T00:22:47.569Z,44.50
2018-08-24T00:25:15.941Z,48.77
2018-08-24T00:27:44.682Z,49.43
2018-08-24T00:30:13.448Z,48.30
2018-08-24T00:32:42.226Z,46.67
2018-08-24T00:35:10.686Z,47.00
2018-08-24T00:37:39.496Z,48.27
2018-08-24T00:40:07.756Z,47.93
2018-08-24T00:42:37.609Z,47.87
2018-08-24T00:45:05.905Z,48.77
2018-08-24T00:47:38.574Z,49.00
2018-08-24T00:50:06.673Z,50.00
2018-08-24T00:52:35.440Z,48.53
2018-08-24T00:55:03.871Z,47.27
2018-08-24T00:57:32.295Z,48.30
2018-08-24T01:00:01.113Z,48.50
2018-08-24T01:02:29.238Z,48.77
2018-08-24T01:04:57.760Z,50.57
2018-08-24T01:07:26.561Z,48.10
2018-08-24T01:09:55.488Z,53.77
2018-08-24T01:12:24.221Z,52.97
2018-08-24T01:14:53.122Z,51.40
2018-08-24T01:17:27.361Z,62.43
2018-08-24T01:19:55.927Z,68.70
2018-08-24T01:22:24.142Z,67.23
2018-08-24T01:24:53.372Z,61.77
2018-08-24T01:27:21.996Z,61.30
2018-08-24T01:29:51.034Z,64.40
2018-08-24T01:32:19.445Z,63.30
2018-08-24T01:34:47.749Z,64.57
2018-08-24T01:37:15.889Z,63.40
2018-08-24T01:39:44.365Z,60.43
2018-08-24T01:42:13.232Z,63.90
2018-08-24T01:44:41.749Z,66.67
2018-08-24T01:47:10.523Z,65.83
2018-08-24T01:49:39.377Z,69.53
2018-08-24T01:52:07.943Z,71.20
2018-08-24T01:54:36.741Z,75.40
2018-08-24T01:57:04.890Z,72.80
2018-08-24T01:59:32.968Z,75.60
2018-08-24T02:02:01.745Z,71.67
2018-08-24T02:04:30.471Z,74.27
2018-08-24T02:06:59.224Z,76.00
2018-08-24T02:09:28.003Z,77.83
2018-08-24T02:11:56.454Z,82.83
2018-08-24T02:14:30.568Z,79.10
2018-08-24T02:16:58.846Z,79.47
2018-08-24T02:19:32.771Z,77.43
2018-08-24T02:22:06.605Z,72.10
2018-08-24T02:24:35.331Z,64.50
2018-08-24T02:27:04.134Z,62.50
2018-08-24T02:29:32.927Z,62.50
2018-08-24T02:32:01.506Z,62.23
2018-08-24T02:34:30.266Z,57.17
2018-08-24T02:36:59.033Z,53.50
2018-08-24T02:39:27.800Z,42.10
2018-08-24T02:41:56.222Z,46.83
2018-08-24T02:44:25.106Z,43.17
2018-08-24T02:46:53.927Z,36.57
2018-08-24T02:49:22.724Z,31.97
2018-08-24T02:51:51.494Z,33.00
2018-08-24T02:54:19.583Z,29.60
2018-08-24T02:56:48.326Z,33.93
2018-08-24T02:59:16.838Z,32.67
2018-08-24T03:01:45.313Z,30.70
2018-08-24T03:04:14.037Z,29.13
2018-08-24T03:06:42.501Z,28.97
2018-08-24T03:09:11.702Z,29.27
2018-08-24T03:11:40.177Z,27.80
2018-08-24T03:14:08.383Z,29.23
2018-08-24T03:16:37.028Z,28.30
2018-08-24T03:19:05.826Z,27.37
2018-08-24T03:21:34.632Z,30.13
2018-08-24T03:24:03.414Z,31.50
2018-08-24T03:26:32.388Z,30.60
2018-08-24T03:29:00.863Z,32.20
2018-08-24T03:31:29.348Z,34.23
2018-08-24T03:33:58.086Z,34.67
2018-08-24T03:36:26.893Z,37.10
2018-08-24T03:38:55.668Z,38.00
2018-08-24T03:41:24.189Z,36.53
2018-08-24T03:43:52.999Z,38.00
2018-08-24T03:46:21.744Z,36.80
2018-08-24T03:48:50.200Z,36.97
2018-08-24T03:51:19.004Z,36.07
2018-08-24T03:53:47.817Z,36.90
2018-08-24T03:56:16.552Z,37.10
2018-08-24T03:58:45.320Z,38.40
2018-08-24T04:01:13.747Z,36.50
2018-08-24T04:03:42.236Z,38.37
2018-08-24T04:06:10.522Z,38.03
2018-08-24T04:08:39.306Z,37.83
2018-08-24T04:11:08.070Z,36.50
2018-08-24T04:13:36.788Z,37.83
2018-08-24T04:16:05.581Z,35.53
2018-08-24T04:18:34.396Z,33.77
2018-08-24T04:21:02.810Z,34.30
2018-08-24T04:23:31.614Z,31.90
2018-08-24T04:26:00.366Z,30.80
2018-08-24T04:28:29.345Z,30.00
2018-08-24T04:30:58.134Z,29.50
2018-08-24T04:33:26.852Z,30.10
2018-08-24T04:35:55.304Z,31.47
2018-08-24T04:38:23.750Z,30.80
2018-08-24T04:40:52.179Z,30.90
2018-08-24T04:43:20.914Z,30.37
2018-08-24T04:45:49.707Z,33.00
2018-08-24T04:48:18.154Z,30.97
2018-08-24T04:50:46.579Z,30.27
2018-08-24T04:53:15.062Z,30.30
2018-08-24T04:55:43.862Z,29.07
2018-08-24T04:58:12.430Z,28.93
2018-08-24T05:00:41.325Z,29.80
2018-08-24T05:03:10.155Z,29.43
2018-08-24T05:05:38.668Z,30.80
2018-08-24T05:08:07.298Z,26.67
2018-08-24T05:10:35.770Z,25.40
2018-08-24T05:13:04.592Z,25.00
2018-08-24T05:15:33.824Z,26.13
2018-08-24T05:18:02.609Z,24.20
2018-08-24T05:20:31.109Z,25.93
2018-08-24T05:22:59.940Z,26.87
2018-08-24T05:25:28.333Z,24.20
2018-08-24T05:27:57.144Z,23.83
2018-08-24T05:30:26.139Z,27.10
2018-08-24T05:32:54.618Z,26.27
2018-08-24T05:35:23.014Z,26.90
2018-08-24T05:37:51.745Z,28.63
2018-08-24T05:40:20.491Z,26.13
2018-08-24T05:42:48.633Z,25.53
2018-08-24T05:45:17.047Z,27.03
2018-08-24T05:47:45.846Z,26.57
2018-08-24T05:50:14.606Z,27.17
2018-08-24T05:52:43.670Z,28.20
2018-08-24T05:55:12.455Z,26.80
2018-08-24T05:57:41.321Z,27.07
2018-08-24T06:00:09.728Z,27.40
2018-08-24T06:02:38.502Z,27.13
2018-08-24T06:05:06.529Z,28.70
2018-08-24T06:07:41.649Z,28.47
2018-08-24T06:10:10.396Z,25.90
2018-08-24T06:12:39.168Z,29.50
2018-08-24T06:15:07.325Z,27.73
2018-08-24T06:18:08.093Z,26.13
2018-08-24T06:20:37.043Z,27.10
2018-08-24T06:23:05.823Z,28.47
2018-08-24T06:25:34.299Z,27.57
2018-08-24T06:28:03.041Z,28.67
2018-08-24T06:30:31.444Z,26.80
2018-08-24T06:33:00.165Z,27.83
2018-08-24T06:35:28.931Z,27.77
2018-08-24T06:37:57.711Z,28.13
2018-08-24T06:40:26.192Z,28.10
2018-08-24T06:42:54.820Z,28.70
2018-08-24T06:45:23.034Z,27.53
2018-08-24T06:47:51.819Z,27.17
2018-08-24T06:50:19.937Z,25.50
2018-08-24T06:52:48.747Z,27.87
2018-08-24T06:55:17.843Z,25.30
2018-08-24T06:57:46.615Z,24.20
2018-08-24T07:00:19.815Z,24.10
2018-08-24T07:02:48.546Z,23.40
2018-08-24T07:05:17.458Z,22.30
2018-08-24T07:07:45.580Z,23.13
2018-08-24T07:10:13.984Z,22.03
2018-08-24T07:12:42.505Z,22.27
2018-08-24T07:15:11.250Z,21.80
2018-08-24T07:17:45.264Z,19.33
2018-08-24T07:20:14.023Z,18.57
2018-08-24T07:22:42.781Z,18.47
2018-08-24T07:25:11.144Z,19.87
2018-08-24T07:27:40.073Z,18.50
2018-08-24T07:30:08.509Z,19.70
2018-08-24T07:32:36.945Z,19.10
2018-08-24T07:35:05.051Z,17.83
2018-08-24T07:37:33.938Z,17.20
2018-08-24T07:40:02.379Z,16.20
2018-08-24T07:42:31.338Z,16.73
2018-08-24T07:44:59.819Z,16.13
2018-08-24T07:47:28.679Z,16.73
2018-08-24T07:49:57.467Z,16.43
2018-08-24T07:52:26.269Z,15.50
2018-08-24T07:54:55.054Z,15.23
2018-08-24T07:57:23.865Z,14.10
2018-08-24T07:59:52.394Z,12.67
2018-08-24T08:02:25.419Z,12.43
2018-08-24T08:04:54.214Z,11.73
2018-08-24T08:07:22.673Z,11.73
2018-08-24T08:09:51.134Z,12.03
2018-08-24T08:12:19.558Z,11.30
2018-08-24T08:14:53.979Z,11.37
2018-08-24T08:17:22.706Z,11.33
2018-08-24T08:19:51.541Z,12.20
2018-08-24T08:22:20.319Z,11.97
2018-08-24T08:24:49.164Z,13.63
2018-08-24T08:27:17.717Z,13.77
2018-08-24T08:29:51.871Z,15.30
2018-08-24T08:32:20.638Z,19.40
2018-08-24T08:34:53.154Z,16.90
2018-08-24T08:37:22.154Z,17.70
2018-08-24T08:39:52.010Z,19.93
2018-08-24T08:42:21.408Z,19.23
2018-08-24T08:44:50.200Z,18.37
2018-08-24T08:47:18.960Z,21.00
2018-08-24T08:49:47.751Z,19.57
2018-08-24T08:52:16.530Z,17.50
2018-08-24T08:54:45.248Z,18.77
2018-08-24T08:57:13.300Z,17.23
2018-08-24T08:59:42.290Z,18.23
2018-08-24T09:02:11.120Z,17.30
2018-08-24T09:04:40.446Z,17.20
2018-08-24T09:07:09.361Z,16.27
2018-08-24T09:09:38.330Z,15.50
2018-08-24T09:12:07.354Z,16.20
2018-08-24T09:14:35.548Z,16.00
2018-08-24T09:17:09.463Z,14.50
2018-08-24T09:19:43.471Z,13.53
2018-08-24T09:23:18.131Z,13.33
2018-08-24T09:25:52.034Z,10.73
2018-08-24T09:28:37.086Z,8.30
2018-08-24T09:31:12.665Z,7.53
2018-08-24T09:33:41.082Z,8.60
2018-08-24T09:36:15.061Z,9.57
2018-08-24T09:38:43.510Z,10.10
2018-08-24T09:41:12.242Z,10.20
2018-08-24T09:43:46.568Z,8.50
2018-08-24T09:46:15.484Z,9.97
2018-08-24T09:48:49.801Z,7.30
2018-08-24T09:51:24.105Z,6.33
2018-08-24T09:53:58.054Z,6.60
2018-08-24T09:56:27.920Z,6.90
2018-08-24T09:58:57.172Z,7.40
2018-08-24T10:01:31.064Z,6.90
2018-08-24T10:04:04.617Z,9.10
2018-08-24T10:07:36.538Z,8.63
2018-08-24T10:10:04.810Z,8.40
2018-08-24T10:12:36.370Z,9.30
2018-08-24T10:15:06.326Z,10.80
2018-08-24T10:17:35.106Z,9.60
2018-08-24T10:20:03.229Z,10.17
2018-08-24T10:22:32.651Z,9.80
2018-08-24T10:25:01.417Z,9.73
2018-08-24T10:27:30.193Z,9.47
2018-08-24T10:29:58.977Z,10.07
2018-08-24T10:32:27.725Z,11.27
2018-08-24T10:34:56.373Z,10.90
2018-08-24T10:37:25.093Z,11.40
2018-08-24T10:39:53.870Z,11.40
2018-08-24T10:42:22.338Z,11.63
2018-08-24T10:44:51.108Z,12.13
2018-08-24T10:47:19.872Z,13.97
2018-08-24T10:49:48.314Z,13.20
2018-08-24T10:52:17.082Z,13.53
2018-08-24T10:54:46.019Z,13.03
2018-08-24T10:57:14.955Z,13.27
2018-08-24T10:59:43.736Z,9.87
2018-08-24T11:02:12.545Z,10.40
2018-08-24T11:04:41.108Z,7.67
2018-08-24T11:07:09.265Z,6.40
2018-08-24T11:09:38.350Z,6.90
2018-08-24T11:12:07.124Z,5.97
2018-08-24T11:14:36.001Z,5.97
2018-08-24T11:17:04.553Z,6.33
2018-08-24T11:19:33.395Z,5.10
2018-08-24T11:22:02.119Z,5.60
2018-08-24T11:24:30.882Z,4.73
2018-08-24T11:26:59.660Z,3.97
2018-08-24T11:29:28.534Z,4.10
2018-08-24T11:31:57.397Z,4.17
2018-08-24T11:34:26.022Z,4.40
2018-08-24T11:36:54.588Z,4.60
2018-08-24T11:39:23.065Z,4.70
2018-08-24T11:41:51.570Z,5.53
2018-08-24T11:44:20.472Z,4.67
2018-08-24T11:46:49.310Z,5.20
2018-08-24T11:49:17.722Z,4.70
2018-08-24T11:51:46.224Z,6.07
2018-08-24T11:54:15.102Z,8.87
2018-08-24T11:56:43.753Z,6.20
2018-08-24T11:59:12.475Z,7.13
2018-08-24T12:01:41.644Z,4.83
2018-08-24T12:04:10.479Z,5.53
2018-08-24T12:06:39.042Z,5.67
2018-08-24T12:09:08.932Z,5.37
2018-08-24T12:11:37.758Z,6.10
2018-08-24T12:14:06.064Z,5.20
2018-08-24T12:16:35.454Z,4.73
2018-08-24T12:19:05.927Z,6.00
2018-08-24T12:21:34.378Z,5.90
2018-08-24T12:24:02.994Z,6.97
2018-08-24T12:26:31.333Z,9.77
2018-08-24T12:28:59.815Z,5.40
2018-08-24T12:31:28.296Z,8.70
2018-08-24T12:33:57.514Z,12.13
2018-08-24T12:36:27.393Z,6.40
2018-08-24T12:38:55.845Z,7.30
2018-08-24T12:41:24.632Z,11.47
2018-08-24T12:43:53.266Z,9.50
2018-08-24T12:46:21.358Z,15.50
2018-08-24T12:48:50.145Z,11.40
2018-08-24T12:51:18.612Z,7.90
2018-08-24T12:53:47.035Z,8.80
2018-08-24T12:56:20.785Z,15.00
2018-08-24T12:58:50.415Z,9.83
2018-08-24T13:01:19.153Z,7.30
2018-08-24T13:03:48.387Z,8.60
2018-08-24T13:06:16.861Z,8.03
2018-08-24T13:08:45.338Z,8.90
2018-08-24T13:11:14.766Z,9.90
2018-08-24T13:13:43.363Z,7.33
2018-08-24T13:16:12.303Z,11.70
2018-08-24T13:18:40.755Z,19.00
2018-08-24T13:21:08.865Z,11.40
2018-08-24T13:23:37.735Z,8.43
2018-08-24T13:26:06.152Z,8.27
2018-08-24T13:28:34.886Z,8.87
2018-08-24T13:31:02.913Z,8.20
2018-08-24T13:33:31.317Z,9.00
2018-08-24T13:36:00.073Z,7.20
2018-08-24T13:38:28.533Z,8.50
2018-08-24T13:40:56.632Z,8.00
2018-08-24T13:43:25.403Z,14.37
2018-08-24T13:45:54.169Z,21.70
2018-08-24T13:48:23.041Z,10.27
2018-08-24T13:50:51.804Z,10.30
2018-08-24T13:53:20.538Z,8.90
2018-08-24T13:55:49.273Z,14.07
2018-08-24T13:58:17.386Z,9.30
2018-08-24T14:00:45.842Z,8.57
2018-08-24T14:03:14.649Z,7.53
2018-08-24T14:05:43.147Z,8.87
2018-08-24T14:08:11.598Z,14.13
2018-08-24T14:10:40.359Z,8.50
2018-08-24T14:13:08.927Z,7.80
2018-08-24T14:15:38.132Z,8.43
2018-08-24T14:18:06.235Z,8.90
2018-08-24T14:20:35.011Z,8.90
2018-08-24T14:23:03.625Z,10.90
2018-08-24T14:25:32.505Z,11.67
2018-08-24T14:28:01.414Z,7.80
2018-08-24T14:30:29.792Z,8.43
2018-08-24T14:32:58.624Z,10.80
2018-08-24T14:35:27.395Z,8.50
2018-08-24T14:37:55.501Z,9.60
2018-08-24T14:40:24.279Z,9.37
2018-08-24T14:42:53.186Z,8.47
2018-08-24T14:45:21.601Z,9.90
2018-08-24T14:47:50.515Z,8.77
2018-08-24T14:50:18.960Z,8.83
2018-08-24T14:52:47.704Z,8.73
2018-08-24T14:55:16.531Z,8.50
2018-08-24T14:57:45.265Z,10.30
2018-08-24T15:00:13.369Z,9.23
2018-08-24T15:02:42.093Z,9.20
2018-08-24T15:05:11.657Z,9.30
2018-08-24T15:07:40.135Z,9.37
2018-08-24T15:10:08.988Z,9.10
2018-08-24T15:12:38.187Z,9.43
2018-08-24T15:15:07.487Z,8.90
2018-08-24T15:17:36.340Z,10.77
2018-08-24T15:20:04.941Z,9.60
2018-08-24T15:22:34.137Z,8.70
2018-08-24T15:25:02.922Z,8.37
2018-08-24T15:27:32.911Z,8.53
2018-08-24T15:30:01.563Z,15.70
2018-08-24T15:32:30.004Z,9.20
2018-08-24T15:34:58.692Z,9.63
2018-08-24T15:37:27.496Z,9.07
2018-08-24T15:39:56.162Z,8.77
2018-08-24T15:42:24.984Z,8.37
2018-08-24T15:44:53.843Z,9.73
2018-08-24T15:47:22.642Z,11.30
2018-08-24T15:49:51.067Z,11.40
2018-08-24T15:52:19.819Z,9.13
2018-08-24T15:54:48.605Z,8.23
2018-08-24T15:57:17.394Z,8.37
2018-08-24T15:59:46.165Z,8.00
2018-08-24T16:02:14.920Z,8.53
2018-08-24T16:04:43.681Z,11.33
2018-08-24T16:07:12.523Z,8.00
2018-08-24T16:09:40.902Z,8.47
2018-08-24T16:12:09.361Z,9.07
2018-08-24T16:14:38.314Z,8.10
2018-08-24T16:17:06.797Z,8.40
2018-08-24T16:19:35.579Z,8.80
2018-08-24T16:22:04.419Z,8.43
2018-08-24T16:24:33.578Z,8.17
2018-08-24T16:27:02.437Z,8.10
2018-08-24T16:29:31.281Z,34.90
2018-08-24T16:31:59.466Z,11.30
2018-08-24T16:34:28.169Z,8.77
2018-08-24T16:36:56.824Z,12.17
2018-08-24T16:39:25.578Z,8.03
2018-08-24T16:41:54.492Z,7.83
2018-08-24T16:44:23.319Z,10.73
2018-08-24T16:46:51.840Z,7.93
2018-08-24T16:49:20.903Z,7.80
2018-08-24T16:51:49.395Z,8.07
2018-08-24T16:54:18.220Z,8.33
2018-08-24T16:56:46.992Z,8.27
2018-08-24T16:59:15.770Z,9.30
2018-08-24T17:01:44.588Z,7.37
2018-08-24T17:04:13.450Z,7.80
2018-08-24T17:06:41.912Z,11.50
2018-08-24T17:09:12.094Z,7.10
2018-08-24T17:11:41.120Z,14.20
2018-08-24T17:14:09.893Z,7.70
2018-08-24T17:16:38.672Z,8.40
2018-08-24T17:19:07.455Z,6.20
2018-08-24T17:21:36.240Z,6.50
2018-08-24T17:24:04.666Z,6.30
2018-08-24T17:26:33.397Z,7.60
2018-08-24T17:29:02.143Z,6.10
2018-08-24T17:31:30.585Z,7.30
2018-08-24T17:33:59.300Z,6.90
2018-08-24T17:36:27.773Z,5.13
2018-08-24T17:38:56.537Z,4.63
2018-08-24T17:41:25.468Z,8.57
2018-08-24T17:43:53.927Z,5.70
2018-08-24T17:46:22.555Z,5.00
2018-08-24T17:48:51.405Z,5.40
2018-08-24T17:51:20.247Z,5.00
2018-08-24T17:53:49.049Z,4.43
2018-08-24T17:56:17.781Z,5.40
2018-08-24T17:58:46.603Z,6.03
2018-08-24T18:01:15.212Z,4.97
2018-08-24T18:03:43.979Z,4.73
2018-08-24T18:06:12.785Z,5.97
2018-08-24T18:08:41.949Z,4.70
2018-08-24T18:11:10.767Z,4.63
2018-08-24T18:13:39.659Z,4.63
2018-08-24T18:16:08.382Z,5.60
2018-08-24T18:18:36.505Z,5.63
2018-08-24T18:21:04.992Z,5.00
2018-08-24T18:23:33.411Z,4.70
2018-08-24T18:26:01.900Z,4.80
2018-08-24T18:28:30.669Z,5.47
2018-08-24T18:30:59.424Z,4.73
2018-08-24T18:33:27.850Z,5.10
2018-08-24T18:35:56.608Z,4.80
2018-08-24T18:38:25.281Z,4.93
2018-08-24T18:40:53.729Z,5.20
2018-08-24T18:43:22.190Z,5.00
2018-08-24T18:45:50.608Z,5.13
2018-08-24T18:48:19.538Z,5.17
2018-08-24T18:50:48.066Z,5.60
2018-08-24T18:53:16.620Z,5.10
2018-08-24T18:55:45.381Z,5.37
2018-08-24T18:58:14.150Z,5.10
2018-08-24T19:00:42.534Z,4.83
2018-08-24T19:03:10.976Z,5.70
2018-08-24T19:05:39.724Z,5.00
2018-08-24T19:08:11.598Z,4.90
2018-08-24T19:10:45.172Z,4.97
2018-08-24T19:13:15.921Z,5.57
2018-08-24T19:15:45.860Z,4.43
2018-08-24T19:19:23.261Z,5.23
2018-08-24T19:21:51.670Z,3.90
2018-08-24T19:24:20.108Z,5.13
2018-08-24T19:26:48.912Z,5.07
2018-08-24T19:29:23.116Z,5.30
2018-08-24T19:31:51.553Z,5.10
2018-08-24T19:34:20.364Z,5.03
2018-08-24T19:36:49.130Z,4.60
2018-08-24T19:39:18.041Z,4.70
2018-08-24T19:41:51.844Z,4.47
2018-08-24T19:44:20.717Z,6.00
2018-08-24T19:46:49.484Z,6.80
2018-08-24T19:49:19.119Z,5.20
2018-08-24T19:51:48.091Z,6.00
2018-08-24T19:54:17.166Z,5.50
2018-08-24T19:56:46.284Z,5.57
2018-08-24T19:59:15.983Z,5.97
2018-08-24T20:01:44.451Z,5.33
2018-08-24T20:04:12.949Z,5.87
2018-08-24T20:06:46.996Z,5.17
2018-08-24T20:09:21.415Z,5.57
2018-08-24T20:11:51.362Z,4.73
2018-08-24T20:15:23.169Z,5.23
2018-08-24T20:17:51.966Z,5.40
2018-08-24T20:20:20.123Z,4.90
2018-08-24T20:22:48.892Z,5.50
2018-08-24T20:25:17.663Z,5.37
2018-08-24T20:27:46.126Z,5.27
2018-08-24T20:30:14.885Z,4.97
2018-08-24T20:32:43.697Z,4.93
2018-08-24T20:35:12.485Z,5.20
2018-08-24T20:37:41.258Z,4.80
2018-08-24T20:40:10.165Z,4.53
2018-08-24T20:42:38.837Z,5.30
2018-08-24T20:45:06.902Z,6.50
2018-08-24T20:47:35.319Z,4.60
2018-08-24T20:50:03.429Z,5.30
2018-08-24T20:52:32.237Z,4.70
2018-08-24T20:55:00.708Z,5.17
2018-08-24T20:57:29.678Z,4.20
2018-08-24T20:59:58.139Z,4.33
2018-08-24T21:02:26.880Z,4.50
2018-08-24T21:04:55.273Z,4.30
2018-08-24T21:07:24.095Z,4.47
2018-08-24T21:09:52.905Z,4.80
2018-08-24T21:12:21.654Z,4.43
2018-08-24T21:14:50.437Z,4.37
2018-08-24T21:17:19.355Z,4.47
2018-08-24T21:19:47.832Z,5.40
2018-08-24T21:22:16.243Z,4.33
2018-08-24T21:24:45.113Z,4.60
2018-08-24T21:27:13.611Z,4.10
2018-08-24T21:29:42.427Z,4.80
2018-08-24T21:32:11.270Z,4.10
2018-08-24T21:34:39.670Z,4.30
2018-08-24T21:37:08.504Z,4.50
2018-08-24T21:39:37.460Z,3.87
2018-08-24T21:42:05.985Z,4.00
2018-08-24T21:44:34.870Z,3.97
2018-08-24T21:47:03.623Z,3.53
2018-08-24T21:49:32.387Z,4.20
2018-08-24T21:52:01.154Z,4.80
2018-08-24T21:54:29.533Z,5.00
2018-08-24T21:56:58.330Z,5.60
2018-08-24T21:59:26.775Z,3.73
2018-08-24T22:01:55.297Z,4.63
2018-08-24T22:04:23.800Z,4.10
2018-08-24T22:06:52.286Z,3.90
2018-08-24T22:09:21.112Z,3.57
2018-08-24T22:11:49.567Z,3.63
2018-08-24T22:14:18.323Z,3.43
2018-08-24T22:16:46.799Z,2.80
2018-08-24T22:19:15.360Z,3.00
2018-08-24T22:21:44.124Z,3.20
2018-08-24T22:24:12.938Z,3.00
2018-08-24T22:26:41.405Z,2.77
2018-08-24T22:29:10.167Z,3.30
2018-08-24T22:31:38.627Z,3.40
2018-08-24T22:34:07.202Z,2.67
2018-08-24T22:36:35.678Z,2.87
2018-08-24T22:39:04.997Z,2.80
2018-08-24T22:41:33.734Z,3.00
2018-08-24T22:44:01.912Z,2.50
2018-08-24T22:46:30.675Z,2.73
2018-08-24T22:48:59.238Z,2.30
2018-08-24T22:51:27.627Z,2.37
2018-08-24T22:53:56.387Z,2.10
2018-08-24T22:56:24.801Z,2.40
2018-08-24T22:58:53.229Z,2.10
2018-08-24T23:01:21.649Z,2.53
2018-08-24T23:03:50.455Z,2.30
2018-08-24T23:06:19.227Z,2.17
2018-08-24T23:08:47.954Z,1.73
2018-08-24T23:11:16.420Z,2.40
2018-08-24T23:13:44.872Z,2.20
2018-08-24T23:16:13.597Z,2.27
2018-08-24T23:18:42.058Z,2.40
2018-08-24T23:21:10.439Z,2.40
2018-08-24T23:23:38.837Z,2.53
2018-08-24T23:26:07.645Z,2.50
2018-08-24T23:28:36.091Z,2.53
2018-08-24T23:31:04.587Z,2.17
2018-08-24T23:33:33.329Z,2.00
2018-08-24T23:36:02.095Z,1.80
2018-08-24T23:38:30.863Z,2.57
2018-08-24T23:40:59.290Z,2.50
2018-08-24T23:43:27.739Z,7.00
2018-08-24T23:45:56.551Z,3.57
2018-08-24T23:48:25.270Z,2.20
2018-08-24T23:50:54.092Z,2.53
2018-08-24T23:53:22.835Z,2.63
2018-08-24T23:55:51.267Z,2.00
2018-08-24T23:58:19.997Z,2.47
